createdAt,value
2019-05-30T00:00:18.364Z,0.4
2019-05-30T00:01:39.531Z,1.2
2019-05-30T00:02:15.505Z,0.4
2019-05-30T00:03:27.481Z,0.4
2019-05-30T00:04:05.445Z,0.4
2019-05-30T00:05:15.475Z,0.6
2019-05-30T00:06:27.548Z,0
2019-05-30T00:08:15.453Z,0
2019-05-30T00:09:27.518Z,0.3
2019-05-30T00:10:05.435Z,0
2019-05-30T00:11:15.531Z,0
2019-05-30T00:12:27.495Z,0
2019-05-30T00:13:05.348Z,0
2019-05-30T00:14:15.499Z,0
2019-05-30T00:15:27.425Z,0
2019-05-30T00:16:15.457Z,0
2019-05-30T00:17:27.506Z,0.2
2019-05-30T00:18:39.457Z,0
2019-05-30T00:19:15.512Z,0
2019-05-30T00:20:27.463Z,0
2019-05-30T00:21:39.504Z,0
2019-05-30T00:22:15.470Z,0
2019-05-30T00:23:27.428Z,0
2019-05-30T00:24:51.753Z,0
2019-05-30T00:25:27.488Z,0
2019-05-30T00:26:39.425Z,0
2019-05-30T00:27:15.502Z,0
2019-05-30T00:28:27.442Z,0
2019-05-30T00:30:25.637Z,0
2019-05-30T00:31:39.429Z,0
2019-05-30T00:32:15.551Z,0
2019-05-30T00:33:27.470Z,0
2019-05-30T00:34:06.202Z,0
2019-05-30T00:35:15.479Z,0
2019-05-30T00:36:27.428Z,0
2019-05-30T00:37:06.264Z,0
2019-05-30T00:38:15.451Z,0
2019-05-30T00:39:27.549Z,0
2019-05-30T00:41:15.536Z,1
2019-05-30T00:42:27.477Z,0
2019-05-30T00:43:39.429Z,0
2019-05-30T00:44:15.560Z,0
2019-05-30T00:45:27.452Z,0
2019-05-30T00:46:39.581Z,0
2019-05-30T00:47:15.483Z,0
2019-05-30T00:48:27.414Z,0
2019-05-30T00:50:15.460Z,0
2019-05-30T00:51:27.529Z,0
2019-05-30T00:52:06.662Z,0
2019-05-30T00:53:15.418Z,0
2019-05-30T00:54:27.487Z,0
2019-05-30T00:56:15.524Z,0
2019-05-30T00:57:27.471Z,0
2019-05-30T00:58:39.519Z,0
2019-05-30T00:59:15.473Z,0
2019-05-30T01:00:44.816Z,0
2019-05-30T01:01:39.468Z,0
2019-05-30T01:02:15.440Z,0
2019-05-30T01:03:27.484Z,0
2019-05-30T01:04:46.187Z,0
2019-05-30T01:05:15.527Z,0.2
2019-05-30T01:06:27.469Z,1.4
2019-05-30T01:07:06.838Z,1.7
2019-05-30T01:08:15.482Z,1.5
2019-05-30T01:09:27.415Z,1.4
2019-05-30T01:10:05.411Z,1.2
2019-05-30T01:11:15.475Z,0.4
2019-05-30T01:12:27.520Z,1.5
2019-05-30T01:13:39.459Z,0
2019-05-30T01:14:15.414Z,0
2019-05-30T01:15:27.508Z,0
2019-05-30T01:16:05.712Z,0
2019-05-30T01:17:15.508Z,0
2019-05-30T01:18:27.443Z,0
2019-05-30T01:19:39.500Z,0
2019-05-30T01:20:15.501Z,0
2019-05-30T01:21:27.418Z,0
2019-05-30T01:22:05.765Z,0
2019-05-30T01:23:15.460Z,0
2019-05-30T01:24:27.492Z,0
2019-05-30T01:25:08.068Z,0
2019-05-30T01:26:15.516Z,0
2019-05-30T01:27:27.480Z,0
2019-05-30T01:28:05.852Z,0
2019-05-30T01:29:15.485Z,0
2019-05-30T01:30:27.431Z,0
2019-05-30T01:31:12.063Z,0
2019-05-30T01:32:15.454Z,0
2019-05-30T01:33:27.529Z,0
2019-05-30T01:34:39.457Z,0
2019-05-30T01:35:15.445Z,0
2019-05-30T01:36:27.474Z,0.4
2019-05-30T01:37:39.431Z,0.2
2019-05-30T01:38:15.513Z,0.2
2019-05-30T01:39:27.473Z,1.7
2019-05-30T01:40:08.436Z,1.3
2019-05-30T01:41:18.471Z,1.5
2019-05-30T01:42:05.631Z,1.1
2019-05-30T01:43:15.420Z,0.4
2019-05-30T01:44:27.462Z,0
2019-05-30T01:45:39.462Z,0.2
2019-05-30T01:46:15.523Z,0.2
2019-05-30T01:47:27.452Z,0
2019-05-30T01:48:06.332Z,0
2019-05-30T01:49:15.470Z,0
2019-05-30T01:50:27.509Z,0.3
2019-05-30T01:51:39.470Z,0
2019-05-30T01:52:15.441Z,0.2
2019-05-30T01:53:27.503Z,0.7
2019-05-30T01:54:39.452Z,0
2019-05-30T01:55:15.547Z,0.4
2019-05-30T01:56:27.464Z,0.6
2019-05-30T01:57:39.537Z,1.2
2019-05-30T01:58:15.476Z,0.4
2019-05-30T01:59:27.414Z,0.9
2019-05-30T02:00:22.050Z,0.5
2019-05-30T02:01:26.277Z,1.7
2019-05-30T02:02:27.535Z,1.3
2019-05-30T02:03:39.460Z,1.3
2019-05-30T02:04:15.424Z,1.3
2019-05-30T02:05:27.476Z,1
2019-05-30T02:06:05.779Z,1.3
2019-05-30T02:07:15.501Z,1
2019-05-30T02:08:27.449Z,0.8
2019-05-30T02:09:39.504Z,0.8
2019-05-30T02:10:15.467Z,0.6
2019-05-30T02:11:27.440Z,0.8
2019-05-30T02:12:05.808Z,0.8
2019-05-30T02:13:15.439Z,0.6
2019-05-30T02:14:27.504Z,1.1
2019-05-30T02:15:39.465Z,0.9
2019-05-30T02:16:15.399Z,0.8
2019-05-30T02:17:27.478Z,0.8
2019-05-30T02:18:39.522Z,0.8
2019-05-30T02:19:15.509Z,0.9
2019-05-30T02:20:27.438Z,0.8
2019-05-30T02:21:39.492Z,0.6
2019-05-30T02:22:15.455Z,0.8
2019-05-30T02:23:27.544Z,0.8
2019-05-30T02:24:39.463Z,0.8
2019-05-30T02:25:15.434Z,0.8
2019-05-30T02:26:27.490Z,0.4
2019-05-30T02:27:39.411Z,0.8
2019-05-30T02:28:15.525Z,0.8
2019-05-30T02:29:27.450Z,0.9
2019-05-30T02:30:14.816Z,1.1
2019-05-30T02:31:15.483Z,0.8
2019-05-30T02:32:27.426Z,0.9
2019-05-30T02:33:09.332Z,1
2019-05-30T02:34:15.467Z,0.8
2019-05-30T02:35:27.522Z,0.4
2019-05-30T02:36:12.136Z,0.4
2019-05-30T02:37:15.448Z,0.8
2019-05-30T02:38:27.490Z,0.6
2019-05-30T02:39:07.205Z,0.6
2019-05-30T02:40:16.314Z,0.8
2019-05-30T02:41:27.467Z,0.8
2019-05-30T02:42:09.123Z,0.6
2019-05-30T02:43:15.466Z,0.8
2019-05-30T02:44:27.405Z,0.6
2019-05-30T02:45:10.143Z,0.4
2019-05-30T02:46:15.462Z,0.6
2019-05-30T02:47:27.504Z,0.4
2019-05-30T02:48:09.335Z,0.8
2019-05-30T02:49:04.969Z,0.4
2019-05-30T02:50:27.466Z,0.8
2019-05-30T02:51:09.752Z,0.8
2019-05-30T02:52:15.497Z,0.4
2019-05-30T02:53:27.435Z,0.8
2019-05-30T02:54:13.208Z,0.8
2019-05-30T02:55:15.455Z,0.8
2019-05-30T02:56:27.545Z,0.8
2019-05-30T02:57:10.113Z,0.8
2019-05-30T02:58:15.458Z,0.8
2019-05-30T02:59:27.503Z,0.8
2019-05-30T03:00:17.438Z,0.8
2019-05-30T03:01:15.722Z,0.8
2019-05-30T03:02:15.087Z,0.9
2019-05-30T03:03:13.648Z,0.9
2019-05-30T03:04:15.479Z,0.4
2019-05-30T03:05:27.529Z,0.8
2019-05-30T03:06:11.733Z,0.8
2019-05-30T03:07:15.483Z,0.8
2019-05-30T03:08:27.507Z,0.8
2019-05-30T03:09:10.903Z,0.8
2019-05-30T03:10:16.381Z,1
2019-05-30T03:11:27.521Z,0.8
2019-05-30T03:12:12.810Z,1
2019-05-30T03:13:15.527Z,0.8
2019-05-30T03:14:27.438Z,0.8
2019-05-30T03:15:15.206Z,0.8
2019-05-30T03:16:15.593Z,0.8
2019-05-30T03:17:27.568Z,0.8
2019-05-30T03:18:12.737Z,1
2019-05-30T03:19:15.455Z,0.9
2019-05-30T03:20:27.485Z,1
2019-05-30T03:21:11.021Z,1.3
2019-05-30T03:22:15.520Z,0.8
2019-05-30T03:23:27.464Z,1.2
2019-05-30T03:24:12.336Z,0.9
2019-05-30T03:25:17.128Z,0.9
2019-05-30T03:26:27.424Z,1.2
2019-05-30T03:27:11.628Z,1
2019-05-30T03:28:15.472Z,0.4
2019-05-30T03:29:27.518Z,0.8
2019-05-30T03:30:29.187Z,0.8
2019-05-30T03:31:30.944Z,0.9
2019-05-30T03:33:38.656Z,1
2019-05-30T03:33:39.907Z,0.9
2019-05-30T03:34:29.950Z,1.3
2019-05-30T03:35:44.508Z,0.9
2019-05-30T03:36:31.941Z,0.9
2019-05-30T03:37:31.152Z,1.1
2019-05-30T03:38:27.397Z,0.8
2019-05-30T03:39:16.298Z,0.9
2019-05-30T03:40:32.422Z,1.2
2019-05-30T03:41:11.903Z,1.1
2019-05-30T03:42:16.925Z,0.9
2019-05-30T03:43:27.467Z,0.8
2019-05-30T03:44:10.851Z,0.8
2019-05-30T03:45:17.493Z,0.8
2019-05-30T03:46:27.520Z,0.8
2019-05-30T03:47:10.920Z,0.7
2019-05-30T03:48:17.214Z,1
2019-05-30T03:49:27.480Z,1
2019-05-30T03:50:14.032Z,1
2019-05-30T03:51:16.011Z,1
2019-05-30T03:52:27.469Z,0.8
2019-05-30T03:53:11.883Z,0.8
2019-05-30T03:54:16.960Z,0.8
2019-05-30T03:55:27.431Z,0.8
2019-05-30T03:56:11.194Z,0.8
2019-05-30T03:57:16.656Z,0.8
2019-05-30T03:58:27.503Z,1.2
2019-05-30T03:59:03.521Z,0.9
2019-05-30T04:00:18.856Z,0.6
2019-05-30T04:01:27.546Z,0.8
2019-05-30T04:02:03.498Z,0.8
2019-05-30T04:02:59.844Z,0.8
2019-05-30T04:04:27.433Z,0.8
2019-05-30T04:05:03.547Z,0.8
2019-05-30T04:06:18.841Z,0.8
2019-05-30T04:07:27.404Z,0.8
2019-05-30T04:08:03.527Z,0.2
2019-05-30T04:09:25.711Z,1.1
2019-05-30T04:10:27.505Z,0.6
2019-05-30T04:11:03.461Z,0.8
2019-05-30T04:12:17.536Z,1
2019-05-30T04:13:27.533Z,0.6
2019-05-30T04:14:03.451Z,0
2019-05-30T04:15:19.276Z,0.6
2019-05-30T04:16:27.443Z,0.6
2019-05-30T04:17:03.505Z,0.7
2019-05-30T04:18:17.397Z,0.8
2019-05-30T04:19:27.511Z,1
2019-05-30T04:20:03.541Z,0.9
2019-05-30T04:21:22.156Z,1
2019-05-30T04:22:27.528Z,0.4
2019-05-30T04:23:03.438Z,0.8
2019-05-30T04:24:17.138Z,0.8
2019-05-30T04:25:03.685Z,0.6
2019-05-30T04:26:18.643Z,0.6
2019-05-30T04:27:27.511Z,0.9
2019-05-30T04:28:03.503Z,0.9
2019-05-30T04:29:19.408Z,1.1
2019-05-30T04:30:27.470Z,0.9
2019-05-30T04:31:03.454Z,1.1
2019-05-30T04:32:19.091Z,1.1
2019-05-30T04:33:34.557Z,1.3
2019-05-30T04:35:19.252Z,1.3
2019-05-30T04:36:27.402Z,1.1
2019-05-30T04:37:03.557Z,1.4
2019-05-30T04:38:19.756Z,1.1
2019-05-30T04:39:27.478Z,1
2019-05-30T04:40:03.519Z,1.3
2019-05-30T04:41:21.482Z,2
2019-05-30T04:42:27.497Z,1.5
2019-05-30T04:43:03.429Z,1.6
2019-05-30T04:44:20.849Z,0.8
2019-05-30T04:45:03.526Z,0.8
2019-05-30T04:46:22.257Z,1.4
2019-05-30T04:47:27.490Z,1.2
2019-05-30T04:48:21.515Z,1.3
2019-05-30T04:49:27.480Z,1.4
2019-05-30T04:50:03.585Z,1.3
2019-05-30T04:51:27.470Z,1.6
2019-05-30T04:52:03.471Z,1.9
2019-05-30T04:53:21.205Z,1.9
2019-05-30T04:54:27.494Z,1
2019-05-30T04:55:23.438Z,1
2019-05-30T04:56:27.507Z,1.1
2019-05-30T04:57:03.476Z,0.9
2019-05-30T04:58:24.418Z,1
2019-05-30T04:59:27.560Z,1
2019-05-30T05:00:03.498Z,1.1
2019-05-30T05:01:27.415Z,0.9
2019-05-30T05:02:03.514Z,0.9
2019-05-30T05:03:46.454Z,1.3
2019-05-30T05:04:27.556Z,0.9
2019-05-30T05:05:03.485Z,0.8
2019-05-30T05:06:20.005Z,0.8
2019-05-30T05:07:27.450Z,0.8
2019-05-30T05:08:19.826Z,1.3
2019-05-30T05:09:27.371Z,1.2
2019-05-30T05:10:27.452Z,1.3
2019-05-30T05:11:03.443Z,1.1
2019-05-30T05:11:39.496Z,0.8
2019-05-30T05:12:18.137Z,0.8
2019-05-30T05:13:03.441Z,0.6
2019-05-30T05:13:39.403Z,0.8
2019-05-30T05:14:18.072Z,1
2019-05-30T05:15:27.431Z,0.9
2019-05-30T05:16:36.221Z,0.8
2019-05-30T05:17:17.152Z,1
2019-05-30T05:18:27.390Z,1
2019-05-30T05:19:51.528Z,1.5
2019-05-30T05:20:27.471Z,1.2
2019-05-30T05:21:39.394Z,0.9
2019-05-30T05:22:27.414Z,1.4
2019-05-30T05:23:39.464Z,1.1
2019-05-30T05:24:17.555Z,1.2
2019-05-30T05:25:03.450Z,1.5
2019-05-30T05:25:39.396Z,1.5
2019-05-30T05:26:51.472Z,1.6
2019-05-30T05:27:27.474Z,1
2019-05-30T05:28:17.441Z,1
2019-05-30T05:29:27.359Z,1.2
2019-05-30T05:30:39.427Z,0.9
2019-05-30T05:31:16.955Z,0.8
2019-05-30T05:32:27.438Z,1.1
2019-05-30T05:33:39.386Z,1.7
2019-05-30T05:34:16.798Z,1.6
2019-05-30T05:35:27.439Z,1.5
2019-05-30T05:36:39.507Z,0.9
2019-05-30T05:37:51.409Z,0.8
2019-05-30T05:38:39.439Z,0.8
2019-05-30T05:39:17.820Z,0.9
2019-05-30T05:40:28.742Z,0.8
2019-05-30T05:41:39.382Z,0.8
2019-05-30T05:42:17.783Z,1.2
2019-05-30T05:43:28.386Z,1.2
2019-05-30T05:44:39.464Z,1
2019-05-30T05:45:16.782Z,1
2019-05-30T05:46:28.415Z,1
2019-05-30T05:47:39.410Z,1.2
2019-05-30T05:48:16.775Z,1
2019-05-30T05:49:28.559Z,0.9
2019-05-30T05:50:39.418Z,1.2
2019-05-30T05:51:16.763Z,1.6
2019-05-30T05:52:27.415Z,1
2019-05-30T05:53:39.421Z,1
2019-05-30T05:54:51.422Z,1.4
2019-05-30T05:55:27.392Z,1.3
2019-05-30T05:56:39.474Z,1.1
2019-05-30T05:57:51.380Z,1
2019-05-30T05:58:27.383Z,0.8
2019-05-30T05:59:39.410Z,0.6
2019-05-30T06:00:51.604Z,1.5
2019-05-30T06:01:27.454Z,1.6
2019-05-30T06:02:39.364Z,1.1
2019-05-30T06:03:20.660Z,1
2019-05-30T06:04:28.162Z,1.1
2019-05-30T06:05:54.210Z,0.9
2019-05-30T06:06:51.399Z,1.1
2019-05-30T06:07:28.509Z,1.4
2019-05-30T06:08:39.441Z,1.3
2019-05-30T06:09:16.816Z,1.1
2019-05-30T06:10:28.793Z,0.8
2019-05-30T06:11:39.409Z,0.4
2019-05-30T06:12:51.538Z,1.4
2019-05-30T06:13:27.434Z,1.8
2019-05-30T06:14:39.369Z,0.9
2019-05-30T06:15:51.416Z,1.2
2019-05-30T06:16:28.895Z,0.9
2019-05-30T06:17:39.337Z,0.8
2019-05-30T06:18:51.376Z,1
2019-05-30T06:19:43.162Z,0.8
2019-05-30T06:20:39.400Z,1.3
2019-05-30T06:21:55.328Z,1.5
2019-05-30T06:22:28.338Z,1
2019-05-30T06:23:39.372Z,1.3
2019-05-30T06:25:03.598Z,1.6
2019-05-30T06:25:39.436Z,1.2
2019-05-30T06:26:51.361Z,0.8
2019-05-30T06:27:28.574Z,1.1
2019-05-30T06:28:39.403Z,0.7
2019-05-30T06:29:51.342Z,0.6
2019-05-30T06:30:29.030Z,1
2019-05-30T06:31:39.359Z,1.5
2019-05-30T06:32:51.430Z,1.2
2019-05-30T06:33:39.425Z,0.8
2019-05-30T06:34:40.324Z,0.8
2019-05-30T06:35:29.854Z,1.1
2019-05-30T06:36:39.404Z,0.8
2019-05-30T06:37:51.649Z,0.9
2019-05-30T06:38:29.406Z,1.2
2019-05-30T06:39:39.351Z,1.2
2019-05-30T06:40:51.434Z,1
2019-05-30T06:41:29.535Z,1.2
2019-05-30T06:42:39.348Z,1.5
2019-05-30T06:43:51.421Z,1.8
2019-05-30T06:44:28.594Z,0.9
2019-05-30T06:45:39.405Z,1.5
2019-05-30T06:46:51.572Z,1.2
2019-05-30T06:47:28.372Z,1.4
2019-05-30T06:48:39.391Z,1.5
2019-05-30T06:49:51.338Z,1.2
2019-05-30T06:50:29.029Z,1.5
2019-05-30T06:51:39.339Z,1.1
2019-05-30T06:52:51.689Z,0.8
2019-05-30T06:53:28.995Z,0.8
2019-05-30T06:54:39.355Z,0.9
2019-05-30T06:55:51.382Z,1.3
2019-05-30T06:56:29.395Z,0.8
2019-05-30T06:57:39.457Z,0.8
2019-05-30T06:58:51.346Z,0.8
2019-05-30T06:59:29.649Z,1
2019-05-30T07:00:39.374Z,0.6
2019-05-30T07:01:53.047Z,1.2
2019-05-30T07:02:29.302Z,1.1
2019-05-30T07:03:39.473Z,1.1
2019-05-30T07:04:17.666Z,1.2
2019-05-30T07:05:35.493Z,0.8
2019-05-30T07:06:40.574Z,1.5
2019-05-30T07:07:52.185Z,1.3
2019-05-30T07:08:28.530Z,1.3
2019-05-30T07:09:39.419Z,0.9
2019-05-30T07:10:51.325Z,0.9
2019-05-30T07:11:29.027Z,1.1
2019-05-30T07:12:39.363Z,1.4
2019-05-30T07:13:51.285Z,1.1
2019-05-30T07:14:29.223Z,1
2019-05-30T07:15:39.313Z,0.6
2019-05-30T07:16:51.398Z,0
2019-05-30T07:17:29.425Z,0.2
2019-05-30T07:18:39.295Z,1.9
2019-05-30T07:19:51.329Z,2.4
2019-05-30T07:20:29.342Z,2.4
2019-05-30T07:21:39.366Z,1.5
2019-05-30T07:22:51.307Z,1.6
2019-05-30T07:23:29.894Z,1.9
2019-05-30T07:24:39.337Z,1.4
2019-05-30T07:25:51.295Z,1.1
2019-05-30T07:26:28.478Z,1.1
2019-05-30T07:27:39.306Z,1.3
2019-05-30T07:28:51.354Z,1.4
2019-05-30T07:29:29.766Z,1.4
2019-05-30T07:30:39.380Z,1.5
2019-05-30T07:31:51.326Z,1
2019-05-30T07:32:28.445Z,0.8
2019-05-30T07:33:39.385Z,1.1
2019-05-30T07:35:08.070Z,1.1
2019-05-30T07:36:39.318Z,2.5
2019-05-30T07:37:51.376Z,2.8
2019-05-30T07:38:28.642Z,2.5
2019-05-30T07:39:39.285Z,2.3
2019-05-30T07:40:20.530Z,1.9
2019-05-30T07:41:28.973Z,1.2
2019-05-30T07:42:15.333Z,1.3
2019-05-30T07:42:51.304Z,1.1
2019-05-30T07:43:33.396Z,1.6
2019-05-30T07:44:39.325Z,1.3
2019-05-30T07:45:59.273Z,0.4
2019-05-30T07:47:39.496Z,0
2019-05-30T07:48:51.355Z,0.9
2019-05-30T07:49:28.477Z,0.8
2019-05-30T07:50:51.320Z,0.9
2019-05-30T07:51:28.704Z,1
2019-05-30T07:52:39.897Z,1.2
2019-05-30T07:53:51.390Z,0.7
2019-05-30T07:54:28.832Z,0.8
2019-05-30T07:55:40.143Z,1.7
2019-05-30T07:56:51.335Z,1.4
2019-05-30T07:57:28.564Z,1.5
2019-05-30T07:58:39.367Z,0.9
2019-05-30T07:59:28.670Z,1
2019-05-30T08:00:39.293Z,0.8
2019-05-30T08:01:51.368Z,0.6
2019-05-30T08:02:29.512Z,0.6
2019-05-30T08:03:39.696Z,0.8
2019-05-30T08:04:51.432Z,1.3
2019-05-30T08:05:28.857Z,0.8
2019-05-30T08:06:39.345Z,0.8
2019-05-30T08:07:51.279Z,0.4
2019-05-30T08:08:29.999Z,0.6
2019-05-30T08:09:40.101Z,1.2
2019-05-30T08:10:51.254Z,1.5
2019-05-30T08:11:28.702Z,1.5
2019-05-30T08:12:39.295Z,0.8
2019-05-30T08:13:51.346Z,1.4
2019-05-30T08:14:28.699Z,1.8
2019-05-30T08:15:44.902Z,1
2019-05-30T08:16:51.294Z,1.1
2019-05-30T08:17:29.157Z,0.9
2019-05-30T08:18:39.327Z,1.3
2019-05-30T08:19:51.409Z,0.6
2019-05-30T08:20:29.568Z,0.2
2019-05-30T08:21:39.299Z,0.5
2019-05-30T08:22:51.227Z,1.6
2019-05-30T08:23:28.551Z,1.7
2019-05-30T08:24:39.780Z,2
2019-05-30T08:25:51.314Z,1.6
2019-05-30T08:26:28.560Z,1.4
2019-05-30T08:27:39.586Z,1.5
2019-05-30T08:28:51.276Z,2.1
2019-05-30T08:29:28.519Z,0.3
2019-05-30T08:30:39.576Z,0.2
2019-05-30T08:31:51.301Z,0.4
2019-05-30T08:32:39.810Z,0.4
2019-05-30T08:33:51.329Z,1.7
2019-05-30T08:34:28.893Z,2
2019-05-30T08:35:50.818Z,1.5
2019-05-30T08:36:51.301Z,1.1
2019-05-30T08:37:27.245Z,1.8
2019-05-30T08:38:15.252Z,1.6
2019-05-30T08:38:51.356Z,1.5
2019-05-30T08:39:27.383Z,1.1
2019-05-30T08:40:40.332Z,1.2
2019-05-30T08:41:51.561Z,1.5
2019-05-30T08:42:31.570Z,1.1
2019-05-30T08:43:40.486Z,1.3
2019-05-30T08:44:51.278Z,0.8
2019-05-30T08:45:27.489Z,1
2019-05-30T08:46:40.492Z,0.8
2019-05-30T08:47:51.244Z,0.8
2019-05-30T08:48:27.441Z,1.1
2019-05-30T08:49:15.366Z,1.5
2019-05-30T08:49:51.302Z,2.3
2019-05-30T08:50:27.306Z,2.7
2019-05-30T08:51:40.433Z,1.4
2019-05-30T08:52:51.272Z,1.5
2019-05-30T08:53:27.591Z,1.3
2019-05-30T08:54:40.482Z,0.6
2019-05-30T08:55:51.228Z,1.3
2019-05-30T08:56:30.717Z,1.5
2019-05-30T08:57:41.212Z,1.5
2019-05-30T08:58:51.371Z,1.3
2019-05-30T08:59:27.280Z,1.5
2019-05-30T09:00:39.227Z,0.9
2019-05-30T09:01:53.988Z,1.2
2019-05-30T09:02:27.509Z,1
2019-05-30T09:03:42.026Z,1
2019-05-30T09:04:51.236Z,0.8
2019-05-30T09:05:27.487Z,0.8
2019-05-30T09:06:40.407Z,1.9
2019-05-30T09:08:03.450Z,0.6
2019-05-30T09:08:40.560Z,0.6
2019-05-30T09:09:51.267Z,1.1
2019-05-30T09:10:27.560Z,1.2
2019-05-30T09:11:42.544Z,1.5
2019-05-30T09:12:51.280Z,1.8
2019-05-30T09:13:27.457Z,2.1
2019-05-30T09:14:43.076Z,1.6
2019-05-30T09:15:51.221Z,1
2019-05-30T09:16:39.205Z,1.2
2019-05-30T09:17:51.272Z,0.9
2019-05-30T09:18:27.673Z,0.8
2019-05-30T09:19:43.394Z,0.9
2019-05-30T09:20:51.249Z,0.8
2019-05-30T09:21:27.617Z,0.6
2019-05-30T09:22:43.942Z,1
2019-05-30T09:23:51.290Z,1.6
2019-05-30T09:24:27.661Z,1.4
2019-05-30T09:25:41.802Z,1.2
2019-05-30T09:26:51.380Z,1.7
2019-05-30T09:27:27.312Z,1.4
2019-05-30T09:28:42.512Z,1.7
2019-05-30T09:29:51.292Z,2.1
2019-05-30T09:30:27.471Z,1.7
2019-05-30T09:31:44.470Z,1.3
2019-05-30T09:32:51.277Z,0.9
2019-05-30T09:33:27.718Z,0.9
2019-05-30T09:34:44.605Z,0.4
2019-05-30T09:35:51.406Z,0.8
2019-05-30T09:36:27.280Z,1.2
2019-05-30T09:37:45.453Z,1.6
2019-05-30T09:38:51.280Z,1.2
2019-05-30T09:39:30.465Z,1.4
2019-05-30T09:40:43.844Z,0.9
2019-05-30T09:41:51.408Z,1.7
2019-05-30T09:42:27.206Z,1.1
2019-05-30T09:43:46.317Z,1.7
2019-05-30T09:44:52.928Z,0.8
2019-05-30T09:45:27.285Z,1.2
2019-05-30T09:46:43.935Z,1.7
2019-05-30T09:47:52.198Z,2.5
2019-05-30T09:48:27.539Z,2.4
2019-05-30T09:49:41.500Z,2
2019-05-30T09:50:51.936Z,2
2019-05-30T09:51:27.247Z,2.3
2019-05-30T09:52:39.280Z,1
2019-05-30T09:53:51.291Z,1.1
2019-05-30T09:54:27.190Z,1.2
2019-05-30T09:55:39.291Z,0.2
2019-05-30T09:56:57.537Z,0.6
2019-05-30T09:58:39.237Z,0.8
2019-05-30T09:59:27.219Z,1.3
2019-05-30T10:00:39.266Z,0.9
2019-05-30T10:01:52.568Z,1
2019-05-30T10:02:27.183Z,1
2019-05-30T10:03:39.241Z,2.6
2019-05-30T10:04:52.473Z,1.1
2019-05-30T10:05:27.253Z,1.4
2019-05-30T10:06:39.189Z,0.8
2019-05-30T10:07:52.825Z,0.4
2019-05-30T10:08:27.251Z,0
2019-05-30T10:09:39.215Z,0.6
2019-05-30T10:10:27.171Z,0.7
2019-05-30T10:11:39.263Z,0.6
2019-05-30T10:12:52.411Z,0.9
2019-05-30T10:13:27.542Z,0.8
2019-05-30T10:14:39.193Z,0.8
2019-05-30T10:15:52.472Z,1.3
2019-05-30T10:16:39.285Z,1.1
2019-05-30T10:17:55.305Z,1.3
2019-05-30T10:18:27.172Z,0.8
2019-05-30T10:19:39.247Z,1.8
2019-05-30T10:20:54.300Z,1.6
2019-05-30T10:21:27.251Z,2.3
2019-05-30T10:22:39.230Z,2.1
2019-05-30T10:23:54.337Z,2.6
2019-05-30T10:24:27.200Z,2.1
2019-05-30T10:25:39.171Z,1.3
2019-05-30T10:26:52.942Z,1
2019-05-30T10:27:27.194Z,1
2019-05-30T10:28:39.351Z,1.7
2019-05-30T10:29:53.260Z,1.6
2019-05-30T10:30:27.530Z,1.8
2019-05-30T10:31:39.226Z,1.7
2019-05-30T10:32:55.520Z,2.5
2019-05-30T10:33:27.338Z,2.7
2019-05-30T10:34:39.175Z,3.5
2019-05-30T10:35:54.007Z,2
2019-05-30T10:36:27.223Z,1.7
2019-05-30T10:37:39.246Z,1.9
2019-05-30T10:38:54.205Z,2.5
2019-05-30T10:39:27.180Z,2.5
2019-05-30T10:40:39.214Z,1.5
2019-05-30T10:41:52.771Z,1.8
2019-05-30T10:42:27.265Z,1.4
2019-05-30T10:43:39.194Z,1.6
2019-05-30T10:44:56.336Z,1.1
2019-05-30T10:46:39.428Z,0.8
2019-05-30T10:47:53.847Z,0.4
2019-05-30T10:48:27.158Z,0.8
2019-05-30T10:49:39.483Z,0.8
2019-05-30T10:50:52.527Z,0.9
2019-05-30T10:51:39.429Z,1.4
2019-05-30T10:52:53.459Z,3.5
2019-05-30T10:53:27.216Z,4.9
2019-05-30T10:54:39.662Z,2.9
2019-05-30T10:56:03.250Z,2.9
2019-05-30T10:56:39.201Z,3.2
2019-05-30T10:57:59.357Z,1.7
2019-05-30T10:59:39.203Z,0.6
2019-05-30T11:00:57.545Z,0.8
2019-05-30T11:02:39.144Z,0.8
2019-05-30T11:03:51.242Z,2.1
2019-05-30T11:04:27.157Z,2
2019-05-30T11:05:39.223Z,2.1
2019-05-30T11:07:12.583Z,2
2019-05-30T11:08:07.204Z,2.5
2019-05-30T11:09:52.703Z,2.1
2019-05-30T11:10:27.225Z,2.3
2019-05-30T11:11:39.144Z,2.6
2019-05-30T11:13:06.436Z,2.1
2019-05-30T11:14:39.626Z,1.5
2019-05-30T11:15:55.111Z,1.4
2019-05-30T11:16:27.181Z,0.9
2019-05-30T11:17:39.300Z,0.6
2019-05-30T11:18:57.700Z,1.3
2019-05-30T11:20:39.204Z,2.3
2019-05-30T11:21:56.476Z,3.7
2019-05-30T11:23:54.628Z,2.2
2019-05-30T11:24:27.152Z,2.1
2019-05-30T11:25:39.213Z,0.8
2019-05-30T11:26:57.191Z,1.9
2019-05-30T11:28:39.178Z,2.7
2019-05-30T11:29:53.170Z,2.4
2019-05-30T11:30:27.196Z,2.2
2019-05-30T11:31:39.118Z,0.9
2019-05-30T11:32:53.335Z,2
2019-05-30T11:33:27.175Z,2
2019-05-30T11:34:39.385Z,4.3
2019-05-30T11:35:53.291Z,3.5
2019-05-30T11:36:27.119Z,2.9
2019-05-30T11:37:19.878Z,1.7
2019-05-30T11:38:27.252Z,3.2
2019-05-30T11:39:39.116Z,1.2
2019-05-30T11:40:53.571Z,2
2019-05-30T11:41:27.156Z,2.3
2019-05-30T11:42:39.222Z,2.5
2019-05-30T11:43:53.419Z,4
2019-05-30T11:44:27.152Z,2.3
2019-05-30T11:45:39.193Z,2.4
2019-05-30T11:46:53.426Z,3
2019-05-30T11:47:27.202Z,2.7
2019-05-30T11:48:39.146Z,3.5
2019-05-30T11:49:53.510Z,3.8
2019-05-30T11:50:27.186Z,3.2
2019-05-30T11:51:39.117Z,1.3
2019-05-30T11:52:53.668Z,2.1
2019-05-30T11:53:27.130Z,1.6
2019-05-30T11:54:39.213Z,1.5
2019-05-30T11:56:03.152Z,2.2
2019-05-30T11:56:39.355Z,2.7
2019-05-30T11:57:52.574Z,1.9
2019-05-30T11:58:27.144Z,2.3
2019-05-30T11:59:39.102Z,2.7
2019-05-30T12:00:54.628Z,2.3
2019-05-30T12:01:27.131Z,2
2019-05-30T12:02:39.197Z,2.2
2019-05-30T12:03:52.725Z,1.9
2019-05-30T12:04:27.099Z,1.2
2019-05-30T12:05:39.152Z,0.8
2019-05-30T12:06:54.920Z,1.3
2019-05-30T12:07:37.641Z,1.8
2019-05-30T12:08:52.462Z,1.4
2019-05-30T12:09:27.108Z,1.6
2019-05-30T12:10:39.168Z,2.9
2019-05-30T12:11:52.755Z,1.7
2019-05-30T12:12:27.081Z,1.9
2019-05-30T12:13:39.155Z,1.8
2019-05-30T12:14:53.561Z,1.1
2019-05-30T12:15:27.216Z,0.8
2019-05-30T12:16:53.093Z,0.8
2019-05-30T12:17:27.082Z,0.8
2019-05-30T12:18:53.842Z,1.1
2019-05-30T12:19:39.192Z,0.9
2019-05-30T12:20:53.854Z,1.2
2019-05-30T12:21:30.646Z,0.9
2019-05-30T12:22:39.159Z,4.2
2019-05-30T12:23:54.267Z,6.1
2019-05-30T12:24:27.188Z,3.7
2019-05-30T12:25:39.124Z,2.2
2019-05-30T12:26:52.375Z,2.1
2019-05-30T12:27:27.157Z,1.9
2019-05-30T12:28:39.099Z,2.1
2019-05-30T12:29:52.566Z,3
2019-05-30T12:30:27.128Z,2.1
2019-05-30T12:31:07.461Z,1.7
2019-05-30T12:32:52.675Z,1.5
2019-05-30T12:33:27.100Z,1.3
2019-05-30T12:34:39.654Z,1.2
2019-05-30T12:35:52.298Z,2
2019-05-30T12:36:27.164Z,0.7
2019-05-30T12:38:06.395Z,3.3
2019-05-30T12:38:27.107Z,2.1
2019-05-30T12:39:39.424Z,1.3
2019-05-30T12:40:51.179Z,1.6
2019-05-30T12:41:27.085Z,2.1
2019-05-30T12:42:39.115Z,3.9
2019-05-30T12:43:51.080Z,2.2
2019-05-30T12:44:27.197Z,2.6
2019-05-30T12:45:07.999Z,2
2019-05-30T12:46:51.163Z,2.3
2019-05-30T12:47:27.120Z,1.8
2019-05-30T12:48:39.057Z,1.2
2019-05-30T12:49:51.139Z,1.2
2019-05-30T12:50:27.122Z,1.5
2019-05-30T12:51:39.141Z,0.6
2019-05-30T12:52:27.135Z,2
2019-05-30T12:53:39.084Z,3.3
2019-05-30T12:54:51.150Z,3
2019-05-30T12:55:27.111Z,4
2019-05-30T12:56:39.053Z,2.9
2019-05-30T12:57:51.127Z,4.7
2019-05-30T12:58:27.070Z,2.4
2019-05-30T13:00:19.406Z,2.3
2019-05-30T13:00:39.055Z,2.7
2019-05-30T13:01:15.137Z,1.9
2019-05-30T13:02:27.080Z,1.5
2019-05-30T13:03:03.949Z,1.3
2019-05-30T13:04:15.106Z,3.2
2019-05-30T13:05:27.081Z,1.3
2019-05-30T13:06:04.286Z,0.8
2019-05-30T13:07:04.175Z,1.5
2019-05-30T13:07:51.062Z,3.1
2019-05-30T13:08:27.142Z,3.2
2019-05-30T13:09:04.248Z,2.1
2019-05-30T13:09:51.145Z,2.8
2019-05-30T13:10:27.070Z,2.5
2019-05-30T13:11:05.953Z,1.4
2019-05-30T13:12:15.091Z,1.3
2019-05-30T13:13:27.149Z,2.3
2019-05-30T13:14:03.610Z,1.4
2019-05-30T13:15:15.074Z,1.9
2019-05-30T13:16:27.127Z,1.8
2019-05-30T13:17:05.916Z,1.3
2019-05-30T13:18:15.206Z,2.2
2019-05-30T13:19:27.092Z,3.6
2019-05-30T13:20:04.297Z,3.2
2019-05-30T13:21:15.120Z,1.5
2019-05-30T13:22:04.291Z,2.8
2019-05-30T13:23:27.094Z,1.4
2019-05-30T13:24:05.810Z,1.3
2019-05-30T13:25:15.114Z,1.7
2019-05-30T13:26:27.050Z,1.6
2019-05-30T13:27:04.383Z,1.4
2019-05-30T13:28:15.077Z,1
2019-05-30T13:29:27.130Z,1.2
2019-05-30T13:30:04.474Z,1.2
2019-05-30T13:31:15.045Z,1
2019-05-30T13:32:27.120Z,1.7
2019-05-30T13:33:05.399Z,2
2019-05-30T13:34:15.129Z,1.7
2019-05-30T13:35:27.098Z,1.8
2019-05-30T13:36:05.040Z,1.8
2019-05-30T13:37:15.087Z,2.9
2019-05-30T13:38:27.790Z,1.8
2019-05-30T13:39:05.184Z,1.4
2019-05-30T13:40:26.247Z,1.2
2019-05-30T13:41:27.132Z,1
2019-05-30T13:42:05.474Z,1.5
2019-05-30T13:43:15.045Z,2.2
2019-05-30T13:44:27.096Z,2.6
2019-05-30T13:45:04.432Z,3.9
2019-05-30T13:46:15.134Z,7.8
2019-05-30T13:47:27.045Z,2.9
2019-05-30T13:48:04.687Z,3.4
2019-05-30T13:49:27.206Z,5.9
2019-05-30T13:50:14.279Z,4.4
2019-05-30T13:51:27.093Z,4.6
2019-05-30T13:52:06.839Z,4
2019-05-30T13:53:15.072Z,3.1
2019-05-30T13:54:27.007Z,4
2019-05-30T13:55:05.639Z,4.3
2019-05-30T13:56:27.071Z,3.8
2019-05-30T13:57:05.653Z,6.5
2019-05-30T13:58:15.128Z,1.8
2019-05-30T13:59:27.039Z,1.8
2019-05-30T14:00:04.321Z,1.8
2019-05-30T14:01:15.113Z,3
2019-05-30T14:02:27.135Z,1.1
2019-05-30T14:03:04.330Z,1.3
2019-05-30T14:04:15.039Z,4.5
2019-05-30T14:05:27.111Z,2.5
2019-05-30T14:06:06.399Z,2.9